Nashville, Tennessee
Current Conditions -  °F | °C
As of 1:53 PM on Monday 24 Nov 2014 (Local Time) from KBNA Reporting Station
Scattered Clouds Scattered Clouds  
Wind Chill: 16°   Ceiling: Unl
Heat Index: 16°   Visibility: 10mi
Dew Point:   Wind: 8mph
Humidity: 41%   Direction: 260°W
Pressure: 29.79"   Gusts: NA
Location:  36.11°N, 86.68°W
Report Text: KBNA 241953Z 26007KT 10SM SCT250 16/02 A2979 RMK AO2 SLP085 T01560022
Loading
Personal Weather Stations






























Interactive Weather Map New forecast layout! Learn more

10-Day Weather Forecast

Advertisements
Track Severe Weather on mobile